Boldon, United Kingdom
Current Conditions -  °F | °C
As of 6:20 AM on Tuesday 21 Oct 2014 (Local Time) from EGNT Reporting Station
Light Rain Light Rain  
Wind Chill: 54°   Ceiling: 2300
Heat Index: 54°   Visibility: 6mi
Dew Point: 52°   Wind: 9mph
Humidity: 94%   Direction: 230°SW
Pressure: 29.12"   Gusts: NA
Location:  54.94°N, 1.45°W
Report Text: EGNT 210520Z 23008KT 190V250 9999 -RA SCT018 BKN023 12/11 Q0986
Loading
Personal Weather Stations






























Interactive Weather Map New forecast layout! Learn more

10-Day Weather Forecast

Advertisements
Track Severe Weather on mobile